sensor_id;sensor_type;location;lat;lon;timestamp;temperature;humidity
7572;DHT22;3827;49.928;8.548;2023-02-28T00:01:09;-1.10;99.90
7572;DHT22;3827;49.928;8.548;2023-02-28T00:03:37;-1.20;99.90
7572;DHT22;3827;49.928;8.548;2023-02-28T00:06:06;-1.20;99.90
7572;DHT22;3827;49.928;8.548;2023-02-28T00:08:34;-1.10;99.90
7572;DHT22;3827;49.928;8.548;2023-02-28T00:11:02;-1.10;99.90
7572;DHT22;3827;49.928;8.548;2023-02-28T00:13:29;-1.10;99.90
7572;DHT22;3827;49.928;8.548;2023-02-28T00:16:00;-1.00;99.90
7572;DHT22;3827;49.928;8.548;2023-02-28T00:18:27;-1.10;99.90
7572;DHT22;3827;49.928;8.548;2023-02-28T00:20:55;-1.10;99.90
7572;DHT22;3827;49.928;8.548;2023-02-28T00:23:21;-1.10;99.90
7572;DHT22;3827;49.928;8.548;2023-02-28T00:25:49;-1.10;99.90
7572;DHT22;3827;49.928;8.548;2023-02-28T00:28:16;-1.20;99.90
7572;DHT22;3827;49.928;8.548;2023-02-28T00:30:43;-1.20;99.90
7572;DHT22;3827;49.928;8.548;2023-02-28T00:33:10;-1.20;99.90
7572;DHT22;3827;49.928;8.548;2023-02-28T00:35:37;-1.20;99.90
7572;DHT22;3827;49.928;8.548;2023-02-28T00:38:05;-1.30;99.90
7572;DHT22;3827;49.928;8.548;2023-02-28T00:40:32;-1.30;99.90
7572;DHT22;3827;49.928;8.548;2023-02-28T00:42:59;-1.30;99.90
7572;DHT22;3827;49.928;8.548;2023-02-28T00:45:26;-1.30;99.90
7572;DHT22;3827;49.928;8.548;2023-02-28T00:47:52;-1.40;99.90
7572;DHT22;3827;49.928;8.548;2023-02-28T00:50:19;-1.40;99.90
7572;DHT22;3827;49.928;8.548;2023-02-28T00:52:46;-2.40;99.90
7572;DHT22;3827;49.928;8.548;2023-02-28T00:55:15;-1.40;99.90
7572;DHT22;3827;49.928;8.548;2023-02-28T00:57:42;-1.40;99.90
7572;DHT22;3827;49.928;8.548;2023-02-28T01:00:10;-1.40;99.90
7572;DHT22;3827;49.928;8.548;2023-02-28T01:02:37;-1.40;99.90
7572;DHT22;3827;49.928;8.548;2023-02-28T01:05:04;-1.30;99.90
7572;DHT22;3827;49.928;8.548;2023-02-28T01:07:31;-1.30;99.90
7572;DHT22;3827;49.928;8.548;2023-02-28T01:09:58;-1.20;99.90
7572;DHT22;3827;49.928;8.548;2023-02-28T01:12:26;-1.20;99.90
7572;DHT22;3827;49.928;8.548;2023-02-28T01:14:53;-0.60;99.90
7572;DHT22;3827;49.928;8.548;2023-02-28T01:17:19;-1.20;99.90
7572;DHT22;3827;49.928;8.548;2023-02-28T01:19:46;-1.20;99.90
7572;DHT22;3827;49.928;8.548;2023-02-28T01:22:13;-1.30;99.90
7572;DHT22;3827;49.928;8.548;2023-02-28T01:24:40;-1.30;99.90
7572;DHT22;3827;49.928;8.548;2023-02-28T01:27:07;-1.30;99.90
7572;DHT22;3827;49.928;8.548;2023-02-28T01:29:35;-1.40;99.90
7572;DHT22;3827;49.928;8.548;2023-02-28T01:32:02;-1.40;99.90
7572;DHT22;3827;49.928;8.548;2023-02-28T01:34:29;-1.40;99.90
7572;DHT22;3827;49.928;8.548;2023-02-28T01:36:55;-1.50;99.90
7572;DHT22;3827;49.928;8.548;2023-02-28T01:39:24;-1.40;99.90
7572;DHT22;3827;49.928;8.548;2023-02-28T01:41:51;-1.50;99.90
7572;DHT22;3827;49.928;8.548;2023-02-28T01:45:00;-1.50;99.90
7572;DHT22;3827;49.928;8.548;2023-02-28T01:47:30;-1.60;99.90
7572;DHT22;3827;49.928;8.548;2023-02-28T01:49:58;-1.70;99.90
7572;DHT22;3827;49.928;8.548;2023-02-28T01:52:27;-1.70;99.90
7572;DHT22;3827;49.928;8.548;2023-02-28T01:54:56;-1.70;99.90
7572;DHT22;3827;49.928;8.548;2023-02-28T01:57:27;-1.70;99.90
7572;DHT22;3827;49.928;8.548;2023-02-28T01:59:58;-1.60;99.90
7572;DHT22;3827;49.928;8.548;2023-02-28T02:02:27;-1.60;99.90
7572;DHT22;3827;49.928;8.548;2023-02-28T02:04:58;-1.70;99.90
7572;DHT22;3827;49.928;8.548;2023-02-28T02:07:30;-1.70;99.90
7572;DHT22;3827;49.928;8.548;2023-02-28T02:10:03;-1.70;99.90
7572;DHT22;3827;49.928;8.548;2023-02-28T02:12:40;-1.70;99.90
7572;DHT22;3827;49.928;8.548;2023-02-28T02:15:13;-1.60;99.90
7572;DHT22;3827;49.928;8.548;2023-02-28T02:17:45;-1.60;99.90
7572;DHT22;3827;49.928;8.548;2023-02-28T02:20:42;-1.70;99.90
7572;DHT22;3827;49.928;8.548;2023-02-28T02:26:35;-1.70;99.90
7572;DHT22;3827;49.928;8.548;2023-02-28T02:29:40;-1.80;99.90
7572;DHT22;3827;49.928;8.548;2023-02-28T02:35:14;-1.80;99.90
7572;DHT22;3827;49.928;8.548;2023-02-28T02:37:47;-1.80;99.90
7572;DHT22;3827;49.928;8.548;2023-02-28T02:40:18;-1.80;99.90
7572;DHT22;3827;49.928;8.548;2023-02-28T02:42:50;-1.90;99.90
7572;DHT22;3827;49.928;8.548;2023-02-28T02:45:23;-1.90;99.90
7572;DHT22;3827;49.928;8.548;2023-02-28T02:47:53;-1.90;99.90
7572;DHT22;3827;49.928;8.548;2023-02-28T02:50:29;-1.90;99.90
7572;DHT22;3827;49.928;8.548;2023-02-28T02:53:00;-1.90;99.90
7572;DHT22;3827;49.928;8.548;2023-02-28T02:55:28;-1.90;99.90
7572;DHT22;3827;49.928;8.548;2023-02-28T02:57:58;-2.00;99.90
7572;DHT22;3827;49.928;8.548;2023-02-28T03:00:29;-2.00;99.90
7572;DHT22;3827;49.928;8.548;2023-02-28T03:02:57;-2.10;99.90
7572;DHT22;3827;49.928;8.548;2023-02-28T03:05:27;-2.10;99.90
7572;DHT22;3827;49.928;8.548;2023-02-28T03:07:55;-2.10;99.90
7572;DHT22;3827;49.928;8.548;2023-02-28T03:10:32;-2.10;99.90
7572;DHT22;3827;49.928;8.548;2023-02-28T03:13:07;-2.10;99.90
7572;DHT22;3827;49.928;8.548;2023-02-28T03:15:40;-2.10;99.90
7572;DHT22;3827;49.928;8.548;2023-02-28T03:18:18;-2.10;99.90
7572;DHT22;3827;49.928;8.548;2023-02-28T03:20:57;-2.10;99.90
7572;DHT22;3827;49.928;8.548;2023-02-28T03:23:31;-2.20;99.90
7572;DHT22;3827;49.928;8.548;2023-02-28T03:26:03;-2.20;99.90
7572;DHT22;3827;49.928;8.548;2023-02-28T03:28:37;-2.20;99.90
7572;DHT22;3827;49.928;8.548;2023-02-28T03:31:12;-2.10;99.90
7572;DHT22;3827;49.928;8.548;2023-02-28T03:33:44;-2.10;99.90
7572;DHT22;3827;49.928;8.548;2023-02-28T03:36:24;-2.00;99.90
7572;DHT22;3827;49.928;8.548;2023-02-28T03:38:53;-2.00;99.90
7572;DHT22;3827;49.928;8.548;2023-02-28T03:41:25;-2.10;99.90
7572;DHT22;3827;49.928;8.548;2023-02-28T03:43:55;-2.00;99.90
7572;DHT22;3827;49.928;8.548;2023-02-28T03:46:25;-2.00;99.90
7572;DHT22;3827;49.928;8.548;2023-02-28T03:48:57;-2.10;99.90
7572;DHT22;3827;49.928;8.548;2023-02-28T03:51:29;-2.00;99.90
7572;DHT22;3827;49.928;8.548;2023-02-28T03:53:59;-2.00;99.90
7572;DHT22;3827;49.928;8.548;2023-02-28T03:56:33;-2.00;99.90
7572;DHT22;3827;49.928;8.548;2023-02-28T03:59:04;-2.00;99.90
7572;DHT22;3827;49.928;8.548;2023-02-28T04:01:35;-2.00;99.90
7572;DHT22;3827;49.928;8.548;2023-02-28T04:04:03;-2.10;99.90
7572;DHT22;3827;49.928;8.548;2023-02-28T04:06:33;-2.10;99.90
7572;DHT22;3827;49.928;8.548;2023-02-28T04:09:01;-2.10;99.90
7572;DHT22;3827;49.928;8.548;2023-02-28T04:11:32;-2.10;99.90
7572;DHT22;3827;49.928;8.548;2023-02-28T04:14:00;-2.10;99.90
7572;DHT22;3827;49.928;8.548;2023-02-28T04:16:27;-2.20;99.90
7572;DHT22;3827;49.928;8.548;2023-02-28T04:18:54;-2.20;99.90
7572;DHT22;3827;49.928;8.548;2023-02-28T04:21:27;-2.30;99.90
7572;DHT22;3827;49.928;8.548;2023-02-28T04:23:55;-2.40;99.90
7572;DHT22;3827;49.928;8.548;2023-02-28T04:26:27;-2.40;99.90
7572;DHT22;3827;49.928;8.548;2023-02-28T04:28:55;-2.50;99.90
7572;DHT22;3827;49.928;8.548;2023-02-28T04:31:22;-2.50;99.90
7572;DHT22;3827;49.928;8.548;2023-02-28T04:33:48;-2.40;99.90
7572;DHT22;3827;49.928;8.548;2023-02-28T04:36:15;-2.30;99.90
7572;DHT22;3827;49.928;8.548;2023-02-28T04:38:43;-2.30;99.90
7572;DHT22;3827;49.928;8.548;2023-02-28T04:41:12;-2.20;99.90
7572;DHT22;3827;49.928;8.548;2023-02-28T04:43:39;-2.20;99.90
7572;DHT22;3827;49.928;8.548;2023-02-28T04:46:06;-2.10;99.90
7572;DHT22;3827;49.928;8.548;2023-02-28T04:48:34;-2.00;99.90
7572;DHT22;3827;49.928;8.548;2023-02-28T04:51:02;-2.00;99.90
7572;DHT22;3827;49.928;8.548;2023-02-28T04:53:29;-2.00;99.90
7572;DHT22;3827;49.928;8.548;2023-02-28T04:55:56;-2.00;99.90
7572;DHT22;3827;49.928;8.548;2023-02-28T04:58:25;-1.90;99.90
7572;DHT22;3827;49.928;8.548;2023-02-28T05:00:52;-1.90;99.90
7572;DHT22;3827;49.928;8.548;2023-02-28T05:03:19;-2.00;99.90
7572;DHT22;3827;49.928;8.548;2023-02-28T05:05:47;-1.90;99.90
7572;DHT22;3827;49.928;8.548;2023-02-28T05:08:14;-1.90;99.90
7572;DHT22;3827;49.928;8.548;2023-02-28T05:10:41;-1.90;99.90
7572;DHT22;3827;49.928;8.548;2023-02-28T05:13:10;-2.00;99.90
7572;DHT22;3827;49.928;8.548;2023-02-28T05:15:39;-2.00;99.90
7572;DHT22;3827;49.928;8.548;2023-02-28T05:18:07;-2.00;99.90
7572;DHT22;3827;49.928;8.548;2023-02-28T05:20:34;-2.10;99.90
7572;DHT22;3827;49.928;8.548;2023-02-28T05:23:01;-2.10;99.90
7572;DHT22;3827;49.928;8.548;2023-02-28T05:25:28;-2.10;99.90
7572;DHT22;3827;49.928;8.548;2023-02-28T05:27:55;-2.10;99.90
7572;DHT22;3827;49.928;8.548;2023-02-28T05:30:22;-2.20;99.90
7572;DHT22;3827;49.928;8.548;2023-02-28T05:32:51;-2.10;99.90
7572;DHT22;3827;49.928;8.548;2023-02-28T05:35:18;-2.20;99.90
7572;DHT22;3827;49.928;8.548;2023-02-28T05:37:53;-2.20;99.90
7572;DHT22;3827;49.928;8.548;2023-02-28T05:40:20;-2.20;99.90
7572;DHT22;3827;49.928;8.548;2023-02-28T05:42:48;-2.30;99.90
7572;DHT22;3827;49.928;8.548;2023-02-28T05:45:16;-2.30;99.90
7572;DHT22;3827;49.928;8.548;2023-02-28T05:47:43;-2.30;99.90
7572;DHT22;3827;49.928;8.548;2023-02-28T05:50:11;-2.40;99.90
7572;DHT22;3827;49.928;8.548;2023-02-28T05:52:38;-2.30;99.90
7572;DHT22;3827;49.928;8.548;2023-02-28T05:55:06;-2.40;99.90
7572;DHT22;3827;49.928;8.548;2023-02-28T05:57:33;-2.40;99.90
7572;DHT22;3827;49.928;8.548;2023-02-28T06:00:00;-2.40;99.90
7572;DHT22;3827;49.928;8.548;2023-02-28T06:02:27;-2.40;99.90
7572;DHT22;3827;49.928;8.548;2023-02-28T06:04:54;-2.40;99.90
7572;DHT22;3827;49.928;8.548;2023-02-28T06:07:22;-2.40;99.90
7572;DHT22;3827;49.928;8.548;2023-02-28T06:09:49;-2.30;99.90
7572;DHT22;3827;49.928;8.548;2023-02-28T06:12:16;-2.40;99.90
7572;DHT22;3827;49.928;8.548;2023-02-28T06:14:43;-2.40;99.90
7572;DHT22;3827;49.928;8.548;2023-02-28T06:17:10;-2.40;99.90
7572;DHT22;3827;49.928;8.548;2023-02-28T06:19:37;-2.30;99.90
7572;DHT22;3827;49.928;8.548;2023-02-28T06:22:04;-2.30;99.90
7572;DHT22;3827;49.928;8.548;2023-02-28T06:24:32;-2.30;99.90
7572;DHT22;3827;49.928;8.548;2023-02-28T06:26:59;-2.30;99.90
7572;DHT22;3827;49.928;8.548;2023-02-28T06:29:30;-2.30;99.90
7572;DHT22;3827;49.928;8.548;2023-02-28T06:31:57;-2.30;99.90
7572;DHT22;3827;49.928;8.548;2023-02-28T06:34:24;-2.30;99.90
7572;DHT22;3827;49.928;8.548;2023-02-28T06:36:51;-2.40;99.90
7572;DHT22;3827;49.928;8.548;2023-02-28T06:39:19;-2.40;99.90
7572;DHT22;3827;49.928;8.548;2023-02-28T06:41:47;-2.30;99.90
7572;DHT22;3827;49.928;8.548;2023-02-28T06:44:16;-2.30;99.90
7572;DHT22;3827;49.928;8.548;2023-02-28T06:46:43;-2.30;99.90
7572;DHT22;3827;49.928;8.548;2023-02-28T06:49:11;-2.20;99.90
7572;DHT22;3827;49.928;8.548;2023-02-28T06:51:40;-2.20;99.90
7572;DHT22;3827;49.928;8.548;2023-02-28T06:54:08;-2.20;99.90
7572;DHT22;3827;49.928;8.548;2023-02-28T06:56:35;-2.20;99.90
7572;DHT22;3827;49.928;8.548;2023-02-28T06:59:04;-2.20;99.90
7572;DHT22;3827;49.928;8.548;2023-02-28T07:01:31;-2.10;99.90
7572;DHT22;3827;49.928;8.548;2023-02-28T07:03:58;-2.10;99.90
7572;DHT22;3827;49.928;8.548;2023-02-28T07:06:26;-2.00;99.90
7572;DHT22;3827;49.928;8.548;2023-02-28T07:08:53;-2.00;99.90
7572;DHT22;3827;49.928;8.548;2023-02-28T07:11:20;-1.90;99.90
7572;DHT22;3827;49.928;8.548;2023-02-28T07:13:48;-1.80;99.90
7572;DHT22;3827;49.928;8.548;2023-02-28T07:16:17;-1.70;99.90
7572;DHT22;3827;49.928;8.548;2023-02-28T07:18:44;-1.60;99.90
7572;DHT22;3827;49.928;8.548;2023-02-28T07:21:11;-1.50;99.90
7572;DHT22;3827;49.928;8.548;2023-02-28T07:23:39;-1.40;99.90
7572;DHT22;3827;49.928;8.548;2023-02-28T07:26:06;-1.30;99.90
7572;DHT22;3827;49.928;8.548;2023-02-28T07:28:36;-1.20;99.90
7572;DHT22;3827;49.928;8.548;2023-02-28T07:31:04;-1.10;99.90
7572;DHT22;3827;49.928;8.548;2023-02-28T07:33:32;-1.00;99.90
7572;DHT22;3827;49.928;8.548;2023-02-28T07:36:01;-0.90;99.90
7572;DHT22;3827;49.928;8.548;2023-02-28T07:38:28;-0.80;99.90
7572;DHT22;3827;49.928;8.548;2023-02-28T07:40:54;-0.70;99.90
7572;DHT22;3827;49.928;8.548;2023-02-28T07:43:21;-0.60;99.90
7572;DHT22;3827;49.928;8.548;2023-02-28T07:45:48;-0.50;99.90
7572;DHT22;3827;49.928;8.548;2023-02-28T07:48:15;-0.40;99.90
7572;DHT22;3827;49.928;8.548;2023-02-28T07:50:43;-0.30;99.90
7572;DHT22;3827;49.928;8.548;2023-02-28T07:53:13;-0.20;99.90
7572;DHT22;3827;49.928;8.548;2023-02-28T07:55:40;-0.10;99.90
7572;DHT22;3827;49.928;8.548;2023-02-28T07:58:07;0.00;99.90
7572;DHT22;3827;49.928;8.548;2023-02-28T08:00:33;0.00;99.90
7572;DHT22;3827;49.928;8.548;2023-02-28T08:03:00;0.10;99.90
7572;DHT22;3827;49.928;8.548;2023-02-28T08:05:27;0.20;99.90
7572;DHT22;3827;49.928;8.548;2023-02-28T08:07:55;0.30;99.90
7572;DHT22;3827;49.928;8.548;2023-02-28T08:10:22;0.40;99.90
7572;DHT22;3827;49.928;8.548;2023-02-28T08:12:50;0.50;99.90
7572;DHT22;3827;49.928;8.548;2023-02-28T08:15:16;0.50;99.90
7572;DHT22;3827;49.928;8.548;2023-02-28T08:17:43;0.50;99.90
7572;DHT22;3827;49.928;8.548;2023-02-28T08:20:11;0.50;99.90
7572;DHT22;3827;49.928;8.548;2023-02-28T08:22:38;0.60;99.90
7572;DHT22;3827;49.928;8.548;2023-02-28T08:25:08;0.70;99.90
7572;DHT22;3827;49.928;8.548;2023-02-28T08:27:35;0.80;99.90
7572;DHT22;3827;49.928;8.548;2023-02-28T08:30:02;0.70;99.90
7572;DHT22;3827;49.928;8.548;2023-02-28T08:32:29;0.80;99.90
7572;DHT22;3827;49.928;8.548;2023-02-28T08:34:56;0.90;99.90
7572;DHT22;3827;49.928;8.548;2023-02-28T08:37:23;0.90;99.90
7572;DHT22;3827;49.928;8.548;2023-02-28T08:39:50;1.00;99.90
7572;DHT22;3827;49.928;8.548;2023-02-28T08:42:18;1.10;99.90
7572;DHT22;3827;49.928;8.548;2023-02-28T08:44:45;1.20;99.90
7572;DHT22;3827;49.928;8.548;2023-02-28T08:47:12;1.30;99.90
7572;DHT22;3827;49.928;8.548;2023-02-28T08:49:39;1.50;99.90
7572;DHT22;3827;49.928;8.548;2023-02-28T08:52:06;1.60;99.90
7572;DHT22;3827;49.928;8.548;2023-02-28T08:54:33;1.80;99.90
7572;DHT22;3827;49.928;8.548;2023-02-28T08:57:00;1.80;99.90
7572;DHT22;3827;49.928;8.548;2023-02-28T08:59:28;1.80;99.90
7572;DHT22;3827;49.928;8.548;2023-02-28T09:01:55;1.80;99.90
7572;DHT22;3827;49.928;8.548;2023-02-28T09:04:22;1.90;99.90
7572;DHT22;3827;49.928;8.548;2023-02-28T09:06:49;2.00;99.90
7572;DHT22;3827;49.928;8.548;2023-02-28T09:09:16;2.10;99.90
7572;DHT22;3827;49.928;8.548;2023-02-28T09:11:42;2.20;99.90
7572;DHT22;3827;49.928;8.548;2023-02-28T09:14:09;2.20;99.90
7572;DHT22;3827;49.928;8.548;2023-02-28T09:16:38;2.80;99.90
7572;DHT22;3827;49.928;8.548;2023-02-28T09:19:05;2.30;99.90
7572;DHT22;3827;49.928;8.548;2023-02-28T09:21:31;2.30;99.90
7572;DHT22;3827;49.928;8.548;2023-02-28T09:23:58;2.30;99.90
7572;DHT22;3827;49.928;8.548;2023-02-28T09:26:27;2.50;99.90
7572;DHT22;3827;49.928;8.548;2023-02-28T09:28:59;2.40;99.90
7572;DHT22;3827;49.928;8.548;2023-02-28T09:31:28;2.40;99.90
7572;DHT22;3827;49.928;8.548;2023-02-28T09:33:59;2.40;99.90
7572;DHT22;3827;49.928;8.548;2023-02-28T09:36:29;2.60;99.90
7572;DHT22;3827;49.928;8.548;2023-02-28T09:38:56;2.70;99.90
7572;DHT22;3827;49.928;8.548;2023-02-28T09:41:37;2.90;99.90
7572;DHT22;3827;49.928;8.548;2023-02-28T09:44:15;3.10;99.90
7572;DHT22;3827;49.928;8.548;2023-02-28T09:46:47;3.20;99.90
7572;DHT22;3827;49.928;8.548;2023-02-28T09:49:18;3.20;99.90
7572;DHT22;3827;49.928;8.548;2023-02-28T09:51:50;3.20;99.90
7572;DHT22;3827;49.928;8.548;2023-02-28T09:54:20;3.30;99.90
7572;DHT22;3827;49.928;8.548;2023-02-28T09:56:51;3.40;99.90
7572;DHT22;3827;49.928;8.548;2023-02-28T09:59:29;3.60;99.90
7572;DHT22;3827;49.928;8.548;2023-02-28T10:02:04;3.50;99.90
7572;DHT22;3827;49.928;8.548;2023-02-28T10:04:42;3.90;99.90
7572;DHT22;3827;49.928;8.548;2023-02-28T10:07:21;3.90;99.90
7572;DHT22;3827;49.928;8.548;2023-02-28T10:09:53;4.20;99.90
7572;DHT22;3827;49.928;8.548;2023-02-28T10:12:21;4.10;99.90
7572;DHT22;3827;49.928;8.548;2023-02-28T10:14:51;4.20;99.90
7572;DHT22;3827;49.928;8.548;2023-02-28T10:17:22;4.20;99.90
7572;DHT22;3827;49.928;8.548;2023-02-28T10:19:58;4.30;99.90
7572;DHT22;3827;49.928;8.548;2023-02-28T10:22:29;4.40;99.90
7572;DHT22;3827;49.928;8.548;2023-02-28T10:24:58;4.50;99.90
7572;DHT22;3827;49.928;8.548;2023-02-28T10:27:30;4.80;99.90
7572;DHT22;3827;49.928;8.548;2023-02-28T10:29:58;5.00;99.90
7572;DHT22;3827;49.928;8.548;2023-02-28T10:32:28;5.00;99.90
7572;DHT22;3827;49.928;8.548;2023-02-28T10:35:01;4.90;99.90
7572;DHT22;3827;49.928;8.548;2023-02-28T10:37:33;4.80;99.90
7572;DHT22;3827;49.928;8.548;2023-02-28T10:40:04;5.30;99.90
7572;DHT22;3827;49.928;8.548;2023-02-28T10:42:32;4.40;99.90
7572;DHT22;3827;49.928;8.548;2023-02-28T10:45:10;4.00;99.90
7572;DHT22;3827;49.928;8.548;2023-02-28T10:47:48;4.10;99.90
7572;DHT22;3827;49.928;8.548;2023-02-28T10:50:33;4.00;99.90
7572;DHT22;3827;49.928;8.548;2023-02-28T10:53:23;4.10;99.90
7572;DHT22;3827;49.928;8.548;2023-02-28T10:55:57;4.30;99.90
7572;DHT22;3827;49.928;8.548;2023-02-28T10:58:26;4.50;99.90
7572;DHT22;3827;49.928;8.548;2023-02-28T11:00:54;4.50;99.90
7572;DHT22;3827;49.928;8.548;2023-02-28T11:03:30;4.40;99.90
7572;DHT22;3827;49.928;8.548;2023-02-28T11:06:03;4.30;99.90
7572;DHT22;3827;49.928;8.548;2023-02-28T11:08:30;4.20;99.90
7572;DHT22;3827;49.928;8.548;2023-02-28T11:11:00;4.40;99.90
7572;DHT22;3827;49.928;8.548;2023-02-28T11:13:28;4.40;99.90
7572;DHT22;3827;49.928;8.548;2023-02-28T11:16:00;4.30;99.90
7572;DHT22;3827;49.928;8.548;2023-02-28T11:18:29;4.30;99.90
7572;DHT22;3827;49.928;8.548;2023-02-28T11:21:00;4.60;99.90
7572;DHT22;3827;49.928;8.548;2023-02-28T11:23:30;4.90;99.90
7572;DHT22;3827;49.928;8.548;2023-02-28T11:26:00;4.90;99.90
7572;DHT22;3827;49.928;8.548;2023-02-28T11:28:29;5.00;99.90
7572;DHT22;3827;49.928;8.548;2023-02-28T11:31:04;4.90;99.90
7572;DHT22;3827;49.928;8.548;2023-02-28T11:33:32;5.00;99.90
7572;DHT22;3827;49.928;8.548;2023-02-28T11:36:12;5.00;99.90
7572;DHT22;3827;49.928;8.548;2023-02-28T11:38:40;5.10;99.90
7572;DHT22;3827;49.928;8.548;2023-02-28T11:41:26;5.00;99.90
7572;DHT22;3827;49.928;8.548;2023-02-28T11:44:09;5.10;99.90
7572;DHT22;3827;49.928;8.548;2023-02-28T11:46:45;5.20;99.90
7572;DHT22;3827;49.928;8.548;2023-02-28T11:49:23;5.40;99.90
7572;DHT22;3827;49.928;8.548;2023-02-28T11:52:00;5.70;99.90
7572;DHT22;3827;49.928;8.548;2023-02-28T11:54:41;5.90;99.90
7572;DHT22;3827;49.928;8.548;2023-02-28T11:57:28;6.20;99.90
7572;DHT22;3827;49.928;8.548;2023-02-28T12:00:03;6.20;99.90
7572;DHT22;3827;49.928;8.548;2023-02-28T12:02:40;6.40;99.90
7572;DHT22;3827;49.928;8.548;2023-02-28T12:05:22;6.60;99.90
7572;DHT22;3827;49.928;8.548;2023-02-28T12:08:03;6.60;99.90
7572;DHT22;3827;49.928;8.548;2023-02-28T12:10:37;6.60;99.90
7572;DHT22;3827;49.928;8.548;2023-02-28T12:13:14;7.40;99.90
7572;DHT22;3827;49.928;8.548;2023-02-28T12:16:06;6.50;99.90
7572;DHT22;3827;49.928;8.548;2023-02-28T12:19:06;6.90;99.90
7572;DHT22;3827;49.928;8.548;2023-02-28T12:21:47;6.70;99.90
7572;DHT22;3827;49.928;8.548;2023-02-28T12:24:29;6.40;99.90
7572;DHT22;3827;49.928;8.548;2023-02-28T12:27:06;6.40;99.90
7572;DHT22;3827;49.928;8.548;2023-02-28T12:29:40;6.40;99.90
7572;DHT22;3827;49.928;8.548;2023-02-28T12:32:13;6.60;99.90
7572;DHT22;3827;49.928;8.548;2023-02-28T12:34:45;6.50;99.90
7572;DHT22;3827;49.928;8.548;2023-02-28T12:37:19;6.60;99.90
7572;DHT22;3827;49.928;8.548;2023-02-28T12:39:54;7.00;99.90
7572;DHT22;3827;49.928;8.548;2023-02-28T12:42:26;6.90;99.90
7572;DHT22;3827;49.928;8.548;2023-02-28T12:44:58;6.60;99.90
7572;DHT22;3827;49.928;8.548;2023-02-28T12:47:25;7.10;99.90
7572;DHT22;3827;49.928;8.548;2023-02-28T12:49:54;7.20;99.90
7572;DHT22;3827;49.928;8.548;2023-02-28T12:52:31;7.30;99.90
7572;DHT22;3827;49.928;8.548;2023-02-28T12:55:06;7.10;99.90
7572;DHT22;3827;49.928;8.548;2023-02-28T12:57:39;6.70;99.90
7572;DHT22;3827;49.928;8.548;2023-02-28T13:00:12;6.90;99.90
7572;DHT22;3827;49.928;8.548;2023-02-28T13:03:00;7.00;99.90
7572;DHT22;3827;49.928;8.548;2023-02-28T13:05:53;6.90;99.90
7572;DHT22;3827;49.928;8.548;2023-02-28T13:08:37;6.80;99.90
7572;DHT22;3827;49.928;8.548;2023-02-28T13:11:23;7.20;99.90
7572;DHT22;3827;49.928;8.548;2023-02-28T13:13:57;7.30;99.90
7572;DHT22;3827;49.928;8.548;2023-02-28T13:16:24;6.90;99.90
7572;DHT22;3827;49.928;8.548;2023-02-28T13:18:51;6.90;99.90
7572;DHT22;3827;49.928;8.548;2023-02-28T13:21:27;6.60;99.90
7572;DHT22;3827;49.928;8.548;2023-02-28T13:24:00;6.90;99.90
7572;DHT22;3827;49.928;8.548;2023-02-28T13:29:35;6.90;99.90
7572;DHT22;3827;49.928;8.548;2023-02-28T13:32:31;6.40;99.90
7572;DHT22;3827;49.928;8.548;2023-02-28T13:38:15;6.60;99.90
7572;DHT22;3827;49.928;8.548;2023-02-28T13:40:42;6.70;99.90
7572;DHT22;3827;49.928;8.548;2023-02-28T13:43:09;7.10;99.90
7572;DHT22;3827;49.928;8.548;2023-02-28T13:45:37;7.00;99.90
7572;DHT22;3827;49.928;8.548;2023-02-28T13:48:25;7.20;99.90
7572;DHT22;3827;49.928;8.548;2023-02-28T13:50:53;7.00;99.90
7572;DHT22;3827;49.928;8.548;2023-02-28T13:56:32;6.90;99.90
7572;DHT22;3827;49.928;8.548;2023-02-28T13:59:14;6.70;99.90
7572;DHT22;3827;49.928;8.548;2023-02-28T14:01:57;6.60;99.90
7572;DHT22;3827;49.928;8.548;2023-02-28T14:04:46;6.40;99.90
7572;DHT22;3827;49.928;8.548;2023-02-28T14:07:20;6.50;99.90
7572;DHT22;3827;49.928;8.548;2023-02-28T14:09:55;6.60;99.90
7572;DHT22;3827;49.928;8.548;2023-02-28T14:13:02;6.40;99.90
7572;DHT22;3827;49.928;8.548;2023-02-28T14:15:48;6.90;99.90
7572;DHT22;3827;49.928;8.548;2023-02-28T14:18:26;6.50;99.90
7572;DHT22;3827;49.928;8.548;2023-02-28T14:20:58;6.50;99.90
7572;DHT22;3827;49.928;8.548;2023-02-28T14:23:50;6.70;99.90
7572;DHT22;3827;49.928;8.548;2023-02-28T14:26:32;6.50;99.90
7572;DHT22;3827;49.928;8.548;2023-02-28T14:29:18;6.60;99.90
7572;DHT22;3827;49.928;8.548;2023-02-28T14:31:54;6.40;99.90
7572;DHT22;3827;49.928;8.548;2023-02-28T14:34:35;6.40;99.90
7572;DHT22;3827;49.928;8.548;2023-02-28T14:37:04;6.30;99.90
7572;DHT22;3827;49.928;8.548;2023-02-28T14:39:33;6.40;99.90
7572;DHT22;3827;49.928;8.548;2023-02-28T14:42:02;6.40;99.90
7572;DHT22;3827;49.928;8.548;2023-02-28T14:44:30;6.50;99.90
7572;DHT22;3827;49.928;8.548;2023-02-28T14:46:59;6.40;99.90
7572;DHT22;3827;49.928;8.548;2023-02-28T14:49:34;6.40;99.90
7572;DHT22;3827;49.928;8.548;2023-02-28T14:52:05;6.40;99.90
7572;DHT22;3827;49.928;8.548;2023-02-28T14:54:35;6.30;99.90
7572;DHT22;3827;49.928;8.548;2023-02-28T14:57:02;6.10;99.90
7572;DHT22;3827;49.928;8.548;2023-02-28T14:59:32;6.10;99.90
7572;DHT22;3827;49.928;8.548;2023-02-28T15:02:20;6.20;99.90
7572;DHT22;3827;49.928;8.548;2023-02-28T15:04:59;6.20;99.90
7572;DHT22;3827;49.928;8.548;2023-02-28T15:07:27;6.10;99.90
7572;DHT22;3827;49.928;8.548;2023-02-28T15:10:18;6.20;99.90
7572;DHT22;3827;49.928;8.548;2023-02-28T15:12:51;6.20;99.90
7572;DHT22;3827;49.928;8.548;2023-02-28T15:15:20;6.30;99.90
7572;DHT22;3827;49.928;8.548;2023-02-28T15:17:51;6.10;99.90
7572;DHT22;3827;49.928;8.548;2023-02-28T15:20:21;6.00;99.90
7572;DHT22;3827;49.928;8.548;2023-02-28T15:22:50;6.00;99.90
7572;DHT22;3827;49.928;8.548;2023-02-28T15:25:19;6.00;99.90
7572;DHT22;3827;49.928;8.548;2023-02-28T15:27:49;6.00;99.90
7572;DHT22;3827;49.928;8.548;2023-02-28T15:30:19;6.00;99.90
7572;DHT22;3827;49.928;8.548;2023-02-28T15:33:02;5.90;99.90
7572;DHT22;3827;49.928;8.548;2023-02-28T15:35:32;5.90;99.90
7572;DHT22;3827;49.928;8.548;2023-02-28T15:38:01;5.90;99.90
7572;DHT22;3827;49.928;8.548;2023-02-28T15:40:32;5.80;99.90
7572;DHT22;3827;49.928;8.548;2023-02-28T15:43:06;5.80;99.90
7572;DHT22;3827;49.928;8.548;2023-02-28T15:45:36;5.90;99.90
7572;DHT22;3827;49.928;8.548;2023-02-28T15:48:05;5.90;99.90
7572;DHT22;3827;49.928;8.548;2023-02-28T15:50:34;5.80;99.90
7572;DHT22;3827;49.928;8.548;2023-02-28T15:53:01;5.80;99.90
7572;DHT22;3827;49.928;8.548;2023-02-28T15:55:30;5.80;99.90
7572;DHT22;3827;49.928;8.548;2023-02-28T15:58:00;5.70;99.90
7572;DHT22;3827;49.928;8.548;2023-02-28T16:00:29;5.70;99.90
7572;DHT22;3827;49.928;8.548;2023-02-28T16:02:58;5.60;99.90
7572;DHT22;3827;49.928;8.548;2023-02-28T16:05:27;5.70;99.90
7572;DHT22;3827;49.928;8.548;2023-02-28T16:08:00;5.50;99.90
7572;DHT22;3827;49.928;8.548;2023-02-28T16:10:28;5.50;99.90
7572;DHT22;3827;49.928;8.548;2023-02-28T16:12:56;5.50;99.90
7572;DHT22;3827;49.928;8.548;2023-02-28T16:15:25;5.50;99.90
7572;DHT22;3827;49.928;8.548;2023-02-28T16:17:54;5.40;99.90
7572;DHT22;3827;49.928;8.548;2023-02-28T16:20:24;5.30;99.90
7572;DHT22;3827;49.928;8.548;2023-02-28T16:22:52;5.30;99.90
7572;DHT22;3827;49.928;8.548;2023-02-28T16:25:23;5.20;99.90
7572;DHT22;3827;49.928;8.548;2023-02-28T16:27:52;5.40;99.90
7572;DHT22;3827;49.928;8.548;2023-02-28T16:30:22;5.10;99.90
7572;DHT22;3827;49.928;8.548;2023-02-28T16:32:50;5.00;99.90
7572;DHT22;3827;49.928;8.548;2023-02-28T16:35:18;4.90;99.90
7572;DHT22;3827;49.928;8.548;2023-02-28T16:37:45;4.90;99.90
7572;DHT22;3827;49.928;8.548;2023-02-28T16:40:17;4.80;99.90
7572;DHT22;3827;49.928;8.548;2023-02-28T16:42:48;4.70;99.90
7572;DHT22;3827;49.928;8.548;2023-02-28T16:45:17;4.60;99.90
7572;DHT22;3827;49.928;8.548;2023-02-28T16:47:45;4.50;99.90
7572;DHT22;3827;49.928;8.548;2023-02-28T16:50:14;4.80;99.90